createdAt,value
2017-10-13T00:02:28.483Z,99108.17
2017-10-13T00:04:56.731Z,99099.69
2017-10-13T00:07:25.753Z,99100.07
2017-10-13T00:09:53.995Z,99105.19
2017-10-13T00:12:23.039Z,99110.31
2017-10-13T00:14:51.285Z,99105.67
2017-10-13T00:17:19.532Z,99114.57
2017-10-13T00:19:48.547Z,99115.00
2017-10-13T00:22:16.798Z,99115.38
2017-10-13T00:24:45.818Z,99110.66
2017-10-13T00:27:14.069Z,99105.12
2017-10-13T00:29:43.094Z,99108.01
2017-10-13T00:32:11.343Z,99107.58
2017-10-13T00:34:39.594Z,99111.84
2017-10-13T00:37:07.842Z,99111.11
2017-10-13T00:39:36.097Z,99107.63
2017-10-13T00:42:04.351Z,99109.87
2017-10-13T00:44:33.371Z,99107.37
2017-10-13T00:47:01.610Z,99106.09
2017-10-13T00:49:30.622Z,99103.65
2017-10-13T00:51:58.874Z,99112.60
2017-10-13T00:54:27.887Z,99105.28
2017-10-13T00:56:56.147Z,99104.08
2017-10-13T00:59:25.158Z,99102.84
2017-10-13T01:01:53.410Z,99104.02
2017-10-13T01:04:22.431Z,99106.95
2017-10-13T01:06:50.683Z,99104.48
2017-10-13T01:09:19.695Z,99108.55
2017-10-13T01:11:47.941Z,99102.09
2017-10-13T01:14:16.196Z,99108.96
2017-10-13T01:16:44.455Z,99116.21
2017-10-13T01:19:12.699Z,99117.45
2017-10-13T01:21:40.978Z,99113.17
2017-10-13T01:24:09.226Z,99109.77
2017-10-13T01:26:38.247Z,99111.05
2017-10-13T01:29:06.497Z,99114.56
2017-10-13T01:31:34.750Z,99107.27
2017-10-13T01:34:03.007Z,99102.08
2017-10-13T01:36:31.248Z,99098.17
2017-10-13T01:38:59.502Z,99111.30
2017-10-13T01:41:28.520Z,99107.08
2017-10-13T01:43:56.779Z,99102.44
2017-10-13T01:46:25.795Z,99100.67
2017-10-13T01:48:54.071Z,99104.09
2017-10-13T01:51:22.321Z,99106.23
2017-10-13T01:53:51.339Z,99085.31
2017-10-13T01:56:19.603Z,99078.50
2017-10-13T01:58:47.844Z,99073.69
2017-10-13T02:01:16.098Z,99083.38
2017-10-13T02:03:44.349Z,99069.34
2017-10-13T02:06:12.612Z,99081.14
2017-10-13T02:08:40.862Z,99086.42
2017-10-13T02:11:09.885Z,99085.13
2017-10-13T02:13:38.135Z,99084.03
2017-10-13T02:16:07.155Z,99086.97
2017-10-13T02:18:35.409Z,99087.56
2017-10-13T02:21:04.433Z,99094.76
2017-10-13T02:23:32.682Z,99088.26
2017-10-13T02:26:00.959Z,99088.69
2017-10-13T02:28:29.226Z,99084.85
2017-10-13T02:30:58.235Z,99093.37
2017-10-13T02:33:26.491Z,99084.34
2017-10-13T02:35:55.511Z,99085.63
2017-10-13T02:38:23.770Z,99083.06
2017-10-13T02:40:52.019Z,99083.00
2017-10-13T02:43:20.283Z,99086.00
2017-10-13T02:45:48.534Z,99078.86
2017-10-13T02:48:16.794Z,99073.73
2017-10-13T02:50:45.042Z,99073.79
2017-10-13T02:53:13.302Z,99070.38
2017-10-13T02:55:42.320Z,99073.38
2017-10-13T02:58:10.582Z,99082.72
2017-10-13T03:00:39.593Z,99083.17
2017-10-13T03:03:07.859Z,99076.66
2017-10-13T03:05:36.116Z,99080.44
2017-10-13T03:08:05.159Z,99076.59
2017-10-13T03:10:33.414Z,99071.00
2017-10-13T03:13:01.675Z,99066.27
2017-10-13T03:15:30.696Z,99078.52
2017-10-13T03:17:58.954Z,99074.26
2017-10-13T03:20:27.206Z,99081.52
2017-10-13T03:22:56.220Z,99078.63
2017-10-13T03:25:24.478Z,99077.69
2017-10-13T03:27:53.500Z,99087.58
2017-10-13T03:30:21.750Z,99088.86
2017-10-13T03:32:50.772Z,99087.05
2017-10-13T03:35:19.029Z,99083.36
2017-10-13T03:37:47.282Z,99075.21
2017-10-13T03:40:16.301Z,99082.78
2017-10-13T03:42:44.554Z,99084.50
2017-10-13T03:45:13.575Z,99078.52
2017-10-13T03:47:41.826Z,99077.69
2017-10-13T03:50:10.874Z,99084.17
2017-10-13T03:52:39.122Z,99079.05
2017-10-13T03:55:07.380Z,99081.19
2017-10-13T03:57:36.400Z,99069.73
2017-10-13T04:00:04.647Z,99075.21
2017-10-13T04:02:33.675Z,99073.98
2017-10-13T04:05:01.921Z,99075.27
2017-10-13T04:07:30.186Z,99086.78
2017-10-13T04:09:59.209Z,99081.23
2017-10-13T04:12:27.458Z,99087.28
2017-10-13T04:14:56.474Z,99087.32
2017-10-13T04:17:24.729Z,99084.78
2017-10-13T04:19:53.746Z,99086.91
2017-10-13T04:22:22.002Z,99083.55
2017-10-13T04:24:50.254Z,99090.02
2017-10-13T04:27:19.287Z,99101.11
2017-10-13T04:29:47.542Z,99098.98
2017-10-13T04:32:16.582Z,99095.61
2017-10-13T04:34:45.602Z,99089.64
2017-10-13T04:37:13.854Z,99091.73
2017-10-13T04:39:42.119Z,99094.34
2017-10-13T04:42:10.369Z,99096.90
2017-10-13T04:44:38.625Z,99103.80
2017-10-13T04:47:07.642Z,99103.42
2017-10-13T04:49:35.901Z,99099.96
2017-10-13T04:52:04.915Z,99103.86
2017-10-13T04:54:33.182Z,99103.95
2017-10-13T04:57:01.430Z,99098.84
2017-10-13T04:59:30.455Z,99100.16
2017-10-13T05:01:58.702Z,99103.16
2017-10-13T05:04:27.745Z,99107.02
2017-10-13T05:06:55.996Z,99113.41
2017-10-13T05:09:24.244Z,99109.63
2017-10-13T05:11:53.270Z,99120.77
2017-10-13T05:14:21.531Z,99121.67
2017-10-13T05:16:50.546Z,99120.83
2017-10-13T05:19:18.803Z,99119.97
2017-10-13T05:21:47.071Z,99110.96
2017-10-13T05:24:17.028Z,99123.34
2017-10-13T05:26:45.306Z,99124.19
2017-10-13T05:29:13.572Z,99123.72
2017-10-13T05:31:41.836Z,99127.61
2017-10-13T05:34:10.094Z,99131.87
2017-10-13T05:36:38.371Z,99132.80
2017-10-13T05:39:06.627Z,99134.13
2017-10-13T05:41:35.651Z,99138.87
2017-10-13T05:44:03.905Z,99136.30
2017-10-13T05:46:32.166Z,99138.88
2017-10-13T05:49:00.437Z,99140.96
2017-10-13T05:51:28.685Z,99140.53
2017-10-13T05:53:56.945Z,99146.98
2017-10-13T05:56:25.197Z,99144.84
2017-10-13T05:58:53.472Z,99142.19
2017-10-13T06:01:21.720Z,99144.80
2017-10-13T06:03:49.978Z,99142.17
2017-10-13T06:06:18.242Z,99142.55
2017-10-13T06:08:46.495Z,99142.55
2017-10-13T06:11:14.765Z,99143.40
2017-10-13T06:13:43.017Z,99134.01
2017-10-13T06:16:11.290Z,99137.80
2017-10-13T06:18:39.533Z,99147.98
2017-10-13T06:21:07.800Z,99142.38
2017-10-13T06:23:36.058Z,99141.09
2017-10-13T06:26:04.314Z,99144.52
2017-10-13T06:28:32.565Z,99142.80
2017-10-13T06:31:02.761Z,99154.33
2017-10-13T06:33:31.028Z,99159.92
2017-10-13T06:35:59.294Z,99160.42
2017-10-13T06:38:27.576Z,99165.22
2017-10-13T06:40:55.834Z,99175.53
2017-10-13T06:43:24.120Z,99169.68
2017-10-13T06:45:52.384Z,99178.27
2017-10-13T06:48:20.661Z,99183.44
2017-10-13T06:50:48.923Z,99185.64
2017-10-13T06:53:17.188Z,99184.89
2017-10-13T06:55:45.454Z,99194.39
2017-10-13T06:58:13.738Z,99194.34
2017-10-13T07:00:42.001Z,99195.63
2017-10-13T07:03:10.256Z,99196.10
2017-10-13T07:05:39.296Z,99193.16
2017-10-13T07:08:07.561Z,99200.44
2017-10-13T07:10:35.856Z,99205.77
2017-10-13T07:13:04.130Z,99207.48
2017-10-13T07:15:32.408Z,99208.61
2017-10-13T07:18:00.656Z,99213.94
2017-10-13T07:20:28.946Z,99210.27
2017-10-13T07:22:57.198Z,99212.12
2017-10-13T07:25:25.453Z,99208.27
2017-10-13T07:27:53.720Z,99201.58
2017-10-13T07:30:21.975Z,99212.31
2017-10-13T07:32:50.243Z,99204.11
2017-10-13T07:35:18.507Z,99210.17
2017-10-13T07:37:46.783Z,99222.70
2017-10-13T07:40:15.041Z,99218.47
2017-10-13T07:42:43.305Z,99229.22
2017-10-13T07:45:11.560Z,99233.73
2017-10-13T07:47:40.617Z,99224.29
2017-10-13T07:50:08.896Z,99218.95
2017-10-13T07:52:37.157Z,99220.27
2017-10-13T07:55:05.418Z,99226.30
2017-10-13T07:57:33.683Z,99229.05
2017-10-13T08:00:01.947Z,99240.33
2017-10-13T08:02:30.211Z,99252.50
2017-10-13T08:04:59.252Z,99255.17
2017-10-13T08:07:27.518Z,99252.11
2017-10-13T08:09:55.791Z,99246.22
2017-10-13T08:12:24.045Z,99241.60
2017-10-13T08:14:53.072Z,99244.17
2017-10-13T08:17:21.338Z,99244.40
2017-10-13T08:19:49.599Z,99245.23
2017-10-13T08:22:17.860Z,99244.91
2017-10-13T08:24:46.885Z,99245.28
2017-10-13T08:27:15.151Z,99242.66
2017-10-13T08:29:43.396Z,99248.31
2017-10-13T08:32:12.425Z,99246.74
2017-10-13T08:34:40.671Z,99253.66
2017-10-13T08:37:09.693Z,99249.86
2017-10-13T08:39:37.949Z,99255.39
2017-10-13T08:42:06.230Z,99247.61
2017-10-13T08:44:34.484Z,99249.23
2017-10-13T08:47:02.744Z,99243.62
2017-10-13T08:49:31.005Z,99232.63
2017-10-13T08:51:59.257Z,99238.55
2017-10-13T08:54:27.532Z,99233.14
2017-10-13T08:56:55.797Z,99235.64
2017-10-13T08:59:24.055Z,99227.20
2017-10-13T09:01:52.303Z,99236.70
2017-10-13T09:04:20.558Z,99229.34
2017-10-13T09:06:49.554Z,99229.84
2017-10-13T09:09:17.823Z,99235.41
2017-10-13T09:11:46.831Z,99222.55
2017-10-13T09:14:15.073Z,99222.88
2017-10-13T09:16:44.086Z,99220.42
2017-10-13T09:19:13.117Z,99213.11
2017-10-13T09:21:41.338Z,99218.23
2017-10-13T09:24:10.350Z,99212.23
2017-10-13T09:26:38.607Z,99215.67
2017-10-13T09:29:07.613Z,99219.10
2017-10-13T09:31:36.622Z,99215.21
2017-10-13T09:34:04.866Z,99218.68
2017-10-13T09:36:33.885Z,99216.06
2017-10-13T09:39:02.138Z,99207.81
2017-10-13T09:41:31.171Z,99212.73
2017-10-13T09:43:59.410Z,99222.74
2017-10-13T09:46:28.419Z,99221.39
2017-10-13T09:48:56.670Z,99224.15
2017-10-13T09:51:25.682Z,99231.25
2017-10-13T09:53:53.934Z,99237.52
2017-10-13T09:56:22.175Z,99245.23
2017-10-13T09:58:50.429Z,99241.38
2017-10-13T10:01:18.670Z,99240.06
2017-10-13T10:03:47.691Z,99252.16
2017-10-13T10:06:15.930Z,99250.42
2017-10-13T10:08:44.187Z,99248.24
2017-10-13T10:11:12.426Z,99246.50
2017-10-13T10:13:40.680Z,99253.41
2017-10-13T10:16:08.922Z,99253.04
2017-10-13T10:18:37.194Z,99249.11
2017-10-13T10:21:05.433Z,99242.23
2017-10-13T10:23:33.673Z,99245.66
2017-10-13T10:26:02.685Z,99243.09
2017-10-13T10:28:30.936Z,99253.41
2017-10-13T10:30:59.950Z,99255.98
2017-10-13T10:33:28.194Z,99260.28
2017-10-13T10:35:57.211Z,99248.94
2017-10-13T10:38:25.449Z,99245.53
2017-10-13T10:40:53.723Z,99243.88
2017-10-13T10:43:21.957Z,99244.81
2017-10-13T10:45:50.201Z,99236.94
2017-10-13T10:48:19.221Z,99239.53
2017-10-13T10:50:47.463Z,99237.22
2017-10-13T10:53:16.473Z,99232.03
2017-10-13T10:55:44.719Z,99231.77
2017-10-13T10:58:12.965Z,99226.05
2017-10-13T11:00:41.212Z,99225.80
2017-10-13T11:03:09.474Z,99221.16
2017-10-13T11:05:37.716Z,99213.25
2017-10-13T11:08:05.955Z,99209.48
2017-10-13T11:10:34.198Z,99195.92
2017-10-13T11:13:02.443Z,99195.71
2017-10-13T11:15:30.691Z,99184.67
2017-10-13T11:17:58.938Z,99195.10
2017-10-13T11:20:27.186Z,99199.19
2017-10-13T11:22:56.203Z,99193.23
2017-10-13T11:25:24.433Z,99192.25
2017-10-13T11:27:52.681Z,99193.67
2017-10-13T11:30:20.935Z,99188.38
2017-10-13T11:32:49.175Z,99183.13
2017-10-13T11:35:18.182Z,99185.16
2017-10-13T11:37:46.439Z,99179.44
2017-10-13T11:40:15.453Z,99178.16
2017-10-13T11:42:43.700Z,99175.77
2017-10-13T11:45:11.946Z,99171.95
2017-10-13T11:47:40.202Z,99174.98
2017-10-13T11:50:08.440Z,99173.22
2017-10-13T11:52:37.447Z,99180.30
2017-10-13T11:55:05.693Z,99176.44
2017-10-13T11:57:33.966Z,99169.53
2017-10-13T12:00:02.217Z,99167.64
2017-10-13T12:02:30.473Z,99168.14
2017-10-13T12:04:58.724Z,99168.22
2017-10-13T12:07:26.962Z,99170.80
2017-10-13T12:09:55.206Z,99162.89
2017-10-13T12:12:23.460Z,99163.94
2017-10-13T12:14:51.709Z,99168.95
2017-10-13T12:17:20.717Z,99154.36
2017-10-13T12:19:48.972Z,99148.59
2017-10-13T12:22:17.978Z,99149.20
2017-10-13T12:24:47.002Z,99151.55
2017-10-13T12:27:15.248Z,99148.45
2017-10-13T12:29:44.253Z,99152.23
2017-10-13T12:32:12.510Z,99154.34
2017-10-13T12:34:41.520Z,99155.23
2017-10-13T12:37:09.771Z,99158.70
2017-10-13T12:39:38.776Z,99159.50
2017-10-13T12:42:07.792Z,99160.33
2017-10-13T12:44:36.026Z,99151.48
2017-10-13T12:47:04.275Z,99155.64
2017-10-13T12:49:32.519Z,99154.91
2017-10-13T12:52:00.790Z,99159.08
2017-10-13T12:54:29.038Z,99156.37
2017-10-13T12:56:58.056Z,99156.02
2017-10-13T12:59:26.307Z,99159.37
2017-10-13T13:01:55.327Z,99153.44
2017-10-13T13:04:23.574Z,99149.02
2017-10-13T13:06:52.581Z,99152.91
2017-10-13T13:09:20.839Z,99141.62
2017-10-13T13:11:49.861Z,99147.91
2017-10-13T13:14:18.865Z,99141.98
2017-10-13T13:16:47.254Z,99144.48
2017-10-13T13:19:15.505Z,99150.59
2017-10-13T13:21:43.751Z,99154.15
2017-10-13T13:24:11.994Z,99153.95
2017-10-13T13:26:41.076Z,99161.69
2017-10-13T14:32:44.952Z,99145.18
2017-10-13T14:35:14.368Z,99144.01
2017-10-13T14:37:42.686Z,99149.08
2017-10-13T14:40:10.987Z,99149.73
2017-10-13T14:42:40.063Z,99150.91
2017-10-13T14:45:08.427Z,99153.67
2017-10-13T14:47:36.767Z,99147.93
2017-10-13T14:50:07.391Z,99141.36
2017-10-13T14:52:39.107Z,99141.91
2017-10-13T14:55:07.414Z,99143.79
2017-10-13T14:57:36.611Z,99143.48
2017-10-13T15:00:05.779Z,99144.19
2017-10-13T15:02:34.071Z,99143.59
2017-10-13T15:05:03.350Z,99147.69
2017-10-13T15:07:31.663Z,99145.67
2017-10-13T15:10:00.688Z,99142.59
2017-10-13T15:12:30.279Z,99145.86
2017-10-13T15:14:59.946Z,99143.95
2017-10-13T15:17:28.270Z,99150.38
2017-10-13T15:20:00.225Z,99160.17
2017-10-13T15:22:28.506Z,99156.09
2017-10-13T15:25:02.367Z,99163.82
2017-10-13T15:27:38.451Z,99163.43
2017-10-13T15:30:12.430Z,99165.58
2017-10-13T15:35:53.278Z,99173.83
2017-10-13T15:41:44.137Z,99167.76
2017-10-13T15:44:31.283Z,99166.12
2017-10-13T15:50:25.175Z,99166.30
2017-10-13T15:52:54.561Z,99164.63
2017-10-13T15:55:22.912Z,99167.58
2017-10-13T15:57:51.271Z,99161.63
2017-10-13T16:00:19.623Z,99158.20
2017-10-13T16:02:48.726Z,99150.92
2017-10-13T16:05:32.915Z,99160.45
2017-10-13T16:08:16.527Z,99152.67
2017-10-13T16:11:21.561Z,99149.72
2017-10-13T16:13:49.874Z,99147.65
2017-10-13T16:16:57.861Z,99151.09
2017-10-13T16:19:26.235Z,99157.99
2017-10-13T16:21:54.537Z,99156.30
2017-10-13T16:24:22.862Z,99161.90
2017-10-13T16:26:51.998Z,99167.50
2017-10-13T16:29:20.327Z,99166.23
2017-10-13T16:31:49.406Z,99170.96
2017-10-13T16:34:17.762Z,99171.41
2017-10-13T16:36:46.137Z,99175.71
2017-10-13T16:39:14.529Z,99165.45
2017-10-13T16:41:49.492Z,99168.00
2017-10-13T16:44:17.871Z,99174.89
2017-10-13T16:46:47.010Z,99175.73
2017-10-13T16:49:15.372Z,99177.48
2017-10-13T16:51:50.597Z,99185.61
2017-10-13T16:54:19.277Z,99185.64
2017-10-13T16:56:48.299Z,99188.19
2017-10-13T16:59:16.543Z,99183.05
2017-10-13T17:01:44.802Z,99192.49
2017-10-13T17:04:13.139Z,99188.62
2017-10-13T17:06:41.383Z,99191.64
2017-10-13T17:09:09.627Z,99198.93
2017-10-13T17:11:37.899Z,99196.36
2017-10-13T17:14:06.143Z,99198.06
2017-10-13T17:16:34.390Z,99201.50
2017-10-13T17:19:02.645Z,99208.30
2017-10-13T17:21:30.888Z,99204.08
2017-10-13T17:23:59.141Z,99208.81
2017-10-13T17:26:28.164Z,99207.00
2017-10-13T17:28:56.415Z,99206.99
2017-10-13T17:31:25.426Z,99215.17
2017-10-13T17:33:53.682Z,99210.03
2017-10-13T17:36:22.695Z,99207.47
2017-10-13T17:38:50.961Z,99217.32
2017-10-13T17:41:19.981Z,99217.77
2017-10-13T17:43:48.583Z,99219.52
2017-10-13T17:46:16.835Z,99218.24
2017-10-13T17:48:45.092Z,99217.78
2017-10-13T17:51:14.106Z,99226.41
2017-10-13T17:53:42.358Z,99219.09
2017-10-13T17:56:11.367Z,99219.52
2017-10-13T17:58:39.613Z,99213.92
2017-10-13T18:01:08.642Z,99208.75
2017-10-13T18:03:36.874Z,99213.88
2017-10-13T18:06:05.129Z,99204.00
2017-10-13T18:08:33.378Z,99206.19
2017-10-13T18:11:01.655Z,99211.33
2017-10-13T18:13:29.897Z,99208.73
2017-10-13T18:15:58.910Z,99213.87
2017-10-13T18:18:27.161Z,99213.01
2017-10-13T18:20:56.174Z,99217.29
2017-10-13T18:23:24.422Z,99216.48
2017-10-13T18:25:53.431Z,99217.30
2017-10-13T18:28:21.690Z,99215.57
2017-10-13T18:30:50.705Z,99217.33
2017-10-13T18:33:18.981Z,99213.47
2017-10-13T18:35:47.226Z,99210.45
2017-10-13T18:38:15.469Z,99219.48
2017-10-13T18:40:43.721Z,99221.63
2017-10-13T18:43:11.967Z,99220.39
2017-10-13T18:45:40.982Z,99231.11
2017-10-13T18:48:09.233Z,99231.48
2017-10-13T18:50:38.248Z,99226.30
2017-10-13T18:53:06.487Z,99234.42
2017-10-13T18:55:34.741Z,99224.19
2017-10-13T18:58:02.990Z,99231.92
2017-10-13T19:00:31.238Z,99231.06
2017-10-13T19:02:59.487Z,99224.61
2017-10-13T19:05:27.760Z,99223.75
2017-10-13T19:07:56.001Z,99225.11
2017-10-13T19:10:24.255Z,99230.23
2017-10-13T19:12:52.507Z,99225.47
2017-10-13T19:15:21.510Z,99225.05
2017-10-13T19:17:49.766Z,99231.99
2017-10-13T19:20:18.770Z,99234.50
2017-10-13T19:22:47.845Z,99244.34
2017-10-13T19:25:16.073Z,99241.78
2017-10-13T19:27:44.352Z,99246.92
2017-10-13T19:30:12.594Z,99249.94
2017-10-13T19:32:41.716Z,99259.34
2017-10-13T19:35:09.956Z,99262.33
2017-10-13T19:37:47.022Z,99257.14
2017-10-13T19:40:15.269Z,99265.34
2017-10-13T19:52:05.378Z,99254.73
2017-10-13T19:54:33.683Z,99251.29
2017-10-13T19:57:01.923Z,99256.02
2017-10-13T19:59:30.220Z,99252.58
2017-10-13T20:01:58.499Z,99256.02
2017-10-13T20:04:26.768Z,99258.53
2017-10-13T20:06:55.017Z,99258.58
2017-10-13T20:09:24.021Z,99259.39
2017-10-13T20:11:52.304Z,99265.45
2017-10-13T20:14:20.596Z,99265.45
2017-10-13T20:16:48.941Z,99263.30
2017-10-13T20:19:17.947Z,99270.61
2017-10-13T20:21:46.185Z,99264.19
2017-10-13T20:24:14.437Z,99264.62
2017-10-13T20:26:42.692Z,99264.16
2017-10-13T20:29:10.933Z,99266.73
2017-10-13T20:31:39.954Z,99264.52
2017-10-13T20:34:08.231Z,99270.52
2017-10-13T20:36:36.475Z,99260.73
2017-10-13T20:39:05.487Z,99266.66
2017-10-13T20:41:33.740Z,99270.08
2017-10-13T20:44:02.831Z,99264.92
2017-10-13T20:46:31.841Z,99261.89
2017-10-13T20:49:00.179Z,99261.89
2017-10-13T20:51:28.425Z,99261.01
2017-10-13T20:53:56.683Z,99252.50
2017-10-13T20:56:24.934Z,99259.47
2017-10-13T20:58:53.937Z,99251.28
2017-10-13T21:01:22.951Z,99261.09
2017-10-13T21:03:51.196Z,99258.08
2017-10-13T21:06:20.242Z,99253.02
2017-10-13T21:08:48.494Z,99256.02
2017-10-13T21:11:16.737Z,99248.31
2017-10-13T21:13:45.762Z,99246.61
2017-10-13T21:16:14.050Z,99245.28
2017-10-13T21:18:42.323Z,99241.45
2017-10-13T21:21:10.570Z,99251.30
2017-10-13T21:23:38.826Z,99244.02
2017-10-13T21:26:07.843Z,99237.56
2017-10-13T21:28:36.880Z,99235.00
2017-10-13T21:31:05.162Z,99232.42
2017-10-13T21:33:33.404Z,99227.28
2017-10-13T21:36:01.656Z,99224.70
2017-10-13T21:38:30.658Z,99229.86
2017-10-13T21:40:58.917Z,99228.97
2017-10-13T21:43:27.920Z,99226.73
2017-10-13T21:45:56.170Z,99235.70
2017-10-13T21:48:24.407Z,99245.52
2017-10-13T21:50:52.666Z,99237.81
2017-10-13T21:53:20.905Z,99238.75
2017-10-13T21:55:49.942Z,99240.50
2017-10-13T21:58:18.194Z,99246.52
2017-10-13T22:00:46.442Z,99247.37
2017-10-13T22:03:15.470Z,99248.23
2017-10-13T22:05:43.710Z,99246.48
2017-10-13T22:08:12.749Z,99255.55
2017-10-13T22:10:41.849Z,99249.99
2017-10-13T22:13:10.097Z,99247.84
2017-10-13T22:15:39.114Z,99257.20
2017-10-13T22:18:07.380Z,99245.63
2017-10-13T22:20:35.615Z,99257.19
2017-10-13T22:23:03.850Z,99250.80
2017-10-13T22:25:32.872Z,99247.37
2017-10-13T22:28:01.121Z,99243.95
2017-10-13T22:30:29.381Z,99249.48
2017-10-13T22:32:57.627Z,99249.89
2017-10-13T22:35:26.643Z,99252.00
2017-10-13T22:37:54.906Z,99249.02
2017-10-13T22:40:23.933Z,99252.84
2017-10-13T22:42:52.942Z,99253.25
2017-10-13T22:45:21.191Z,99247.28
2017-10-13T22:47:49.443Z,99258.41
2017-10-13T22:50:17.679Z,99260.16
2017-10-13T22:52:45.933Z,99255.34
2017-10-13T22:55:14.168Z,99254.94
2017-10-13T22:57:42.432Z,99256.17
2017-10-13T23:00:11.455Z,99260.88
2017-10-13T23:02:39.722Z,99267.30
2017-10-13T23:05:07.965Z,99266.88
2017-10-13T23:07:36.969Z,99267.75
2017-10-13T23:10:05.221Z,99269.86
2017-10-13T23:12:33.471Z,99273.26
2017-10-13T23:15:01.719Z,99273.69
2017-10-13T23:17:29.971Z,99276.23
2017-10-13T23:19:58.992Z,99279.64
2017-10-13T23:22:27.234Z,99274.39
2017-10-13T23:24:56.269Z,99277.02
2017-10-13T23:27:24.514Z,99275.78
2017-10-13T23:29:56.005Z,99271.45
2017-10-13T23:32:24.257Z,99276.53
2017-10-13T23:34:52.501Z,99275.30
2017-10-13T23:37:21.517Z,99273.56
2017-10-13T23:39:49.780Z,99268.39
2017-10-13T23:42:18.805Z,99269.65
2017-10-13T23:44:47.051Z,99264.91
2017-10-13T23:47:16.059Z,99263.66
2017-10-13T23:49:44.305Z,99266.65
2017-10-13T23:52:13.318Z,99267.05
2017-10-13T23:54:41.569Z,99267.94
2017-10-13T23:57:10.579Z,99270.48
2017-10-13T23:59:39.598Z,99265.28
